Time;durP1;ratioP1;P1;durP2;ratioP2;P2;SDS_P1;SDS_P2;PMS_P1;PMS_P2;Temp;Humidity;BMP_temperature;BMP_pressure;BME280_temperature;BME280_humidity;BME280_pressure;Samples;Min_cycle;Max_cycle;Signal;HPM_P1;HPM_P2
2022/09/03 00:02:23;;;;;;;1.33;0.70;;;21.40;42.90;;;;;;5088771;28;20119;-69
2022/09/03 00:04:56;;;;;;;0.55;0.50;;;21.30;43.00;;;;;;5101932;28;20024;-67
2022/09/03 00:07:34;;;;;;;1.23;0.75;;;21.30;43.10;;;;;;5089823;28;20486;-67
2022/09/03 00:10:04;;;;;;;0.65;0.65;;;21.30;43.30;;;;;;5090329;28;20035;-67
2022/09/03 00:12:36;;;;;;;0.60;0.60;;;21.20;43.30;;;;;;5100192;28;20032;-68
2022/09/03 00:15:25;;;;;;;1.60;1.07;;;21.20;43.40;;;;;;5100493;28;20020;-67
2022/09/03 00:17:57;;;;;;;3.58;0.82;;;21.20;43.40;;;;;;5096313;28;20030;-72
2022/09/03 00:20:30;;;;;;;0.63;0.60;;;21.10;43.50;;;;;;5094910;28;20032;-72
2022/09/03 00:23:02;;;;;;;0.65;0.50;;;21.00;43.60;;;;;;5096329;28;20044;-68
2022/09/03 00:25:37;;;;;;;0.90;0.90;;;21.00;43.80;;;;;;5089162;28;20049;-72
2022/09/03 00:28:11;;;;;;;0.47;0.40;;;21.00;43.80;;;;;;5089814;28;20090;-72
2022/09/03 00:30:40;;;;;;;0.50;0.50;;;21.00;43.80;;;;;;5089265;28;20734;-72
2022/09/03 00:33:29;;;;;;;1.00;0.50;;;21.00;43.90;;;;;;5071781;28;20038;-73
2022/09/03 00:36:00;;;;;;;0.52;0.52;;;21.00;43.80;;;;;;5089133;28;20027;-73
2022/09/03 00:38:28;;;;;;;0.50;0.40;;;20.90;43.90;;;;;;5089045;28;20061;-68
2022/09/03 00:41:23;;;;;;;0.50;0.50;;;20.90;44.00;;;;;;5089437;28;20028;-72
2022/09/03 00:44:07;;;;;;;0.75;0.65;;;20.90;43.90;;;;;;5092008;28;20422;-72
2022/09/03 00:46:44;;;;;;;0.45;0.45;;;20.90;44.10;;;;;;5089380;28;20115;-72
2022/09/03 00:49:24;;;;;;;0.80;0.80;;;20.90;44.10;;;;;;5088159;28;20087;-72
2022/09/03 00:52:29;;;;;;;0.55;0.55;;;20.80;44.10;;;;;;5089285;28;20497;-68
2022/09/03 00:55:00;;;;;;;0.75;0.75;;;20.80;44.30;;;;;;5088169;28;20114;-68
2022/09/03 00:57:41;;;;;;;0.45;0.45;;;20.70;44.40;;;;;;5091372;28;20094;-68
2022/09/03 01:00:09;;;;;;;1.25;0.80;;;20.70;44.50;;;;;;5091522;28;20020;-68
2022/09/03 01:03:09;;;;;;;0.60;0.60;;;20.60;44.60;;;;;;5089380;28;20031;-68
2022/09/03 01:06:02;;;;;;;0.65;0.40;;;20.60;44.60;;;;;;5088408;28;20047;-67
2022/09/03 01:08:31;;;;;;;1.33;0.73;;;20.60;44.60;;;;;;5086139;28;20032;-68
2022/09/03 01:11:38;;;;;;;0.95;0.50;;;20.50;44.70;;;;;;5091688;28;20020;-68
2022/09/03 01:14:19;;;;;;;0.40;0.40;;;20.50;44.80;;;;;;5088691;28;20020;-68
2022/09/03 01:17:03;;;;;;;0.60;0.60;;;20.40;45.00;;;;;;5087329;28;20028;-73
2022/09/03 01:19:34;;;;;;;0.57;0.50;;;20.40;45.10;;;;;;5091974;28;20558;-73
2022/09/03 01:22:29;;;;;;;1.35;0.60;;;20.40;45.10;;;;;;5092937;28;20020;-73
2022/09/03 01:25:16;;;;;;;0.45;0.45;;;20.40;45.30;;;;;;5093294;28;20062;-73
2022/09/03 01:28:00;;;;;;;0.50;0.50;;;20.30;45.30;;;;;;5052063;28;20123;-74
2022/09/03 01:30:30;;;;;;;0.82;0.82;;;20.30;45.40;;;;;;5098453;28;20034;-68
2022/09/03 01:33:08;;;;;;;0.60;0.60;;;20.30;45.40;;;;;;5093343;28;20050;-69
2022/09/03 01:35:45;;;;;;;0.63;0.63;;;20.30;45.50;;;;;;5099928;28;20031;-72
2022/09/03 01:38:28;;;;;;;0.45;0.45;;;20.20;45.50;;;;;;5090984;28;20417;-68
2022/09/03 01:44:39;;;;;;;0.40;0.40;;;20.20;45.70;;;;;;5091211;28;20286;-73
2022/09/03 01:47:11;;;;;;;1.00;0.63;;;20.20;45.80;;;;;;5084836;28;20440;-69
2022/09/03 01:49:39;;;;;;;0.45;0.45;;;20.10;45.90;;;;;;5090873;28;20032;-68
2022/09/03 01:52:25;;;;;;;1.27;0.68;;;20.10;46.00;;;;;;5099178;28;20381;-69
2022/09/03 01:55:14;;;;;;;0.60;0.60;;;20.10;46.10;;;;;;5096601;28;20035;-73
2022/09/03 01:57:54;;;;;;;0.77;0.50;;;20.10;46.10;;;;;;5096773;28;20423;-68
2022/09/03 02:00:21;;;;;;;0.45;0.45;;;20.00;46.30;;;;;;5092458;28;20036;-68
2022/09/03 02:02:52;;;;;;;2.97;1.15;;;19.90;46.20;;;;;;5090390;28;20409;-72
2022/09/03 02:05:24;;;;;;;0.55;0.55;;;19.90;46.30;;;;;;5092579;28;20082;-75
2022/09/03 02:08:01;;;;;;;1.00;0.88;;;19.90;46.60;;;;;;5093035;28;20031;-73
2022/09/03 02:10:44;;;;;;;0.68;0.68;;;19.90;46.50;;;;;;5093221;28;20090;-69
2022/09/03 02:13:15;;;;;;;0.43;0.43;;;19.80;46.70;;;;;;5092770;28;20532;-68
2022/09/03 02:15:47;;;;;;;0.50;0.50;;;19.80;47.00;;;;;;5092357;28;20070;-73
2022/09/03 02:18:18;;;;;;;1.90;0.52;;;19.70;47.70;;;;;;5092616;28;20027;-73
2022/09/03 02:20:46;;;;;;;1.90;1.27;;;19.70;47.10;;;;;;5091963;28;20418;-74
2022/09/03 02:23:13;;;;;;;0.73;0.35;;;19.70;47.20;;;;;;5091818;28;20024;-69
2022/09/03 02:25:43;;;;;;;0.88;0.70;;;19.60;47.20;;;;;;5090916;28;20032;-69
2022/09/03 02:28:10;;;;;;;1.13;0.50;;;19.60;47.20;;;;;;5097981;28;20597;-74
2022/09/03 02:30:35;;;;;;;0.60;0.60;;;19.60;47.30;;;;;;5091806;28;20031;-69
2022/09/03 02:33:02;;;;;;;0.63;0.63;;;19.50;47.40;;;;;;5101355;28;20028;-70
2022/09/03 02:35:27;;;;;;;0.68;0.50;;;19.50;47.40;;;;;;5096360;28;20103;-68
2022/09/03 02:37:53;;;;;;;0.63;0.40;;;19.50;47.60;;;;;;5093547;28;20135;-69
2022/09/03 02:40:18;;;;;;;1.35;0.82;;;19.40;47.50;;;;;;5096311;28;20028;-69
2022/09/03 02:42:46;;;;;;;0.52;0.52;;;19.40;47.60;;;;;;5101161;28;20035;-69
2022/09/03 02:45:30;;;;;;;0.60;0.60;;;19.40;47.60;;;;;;5095429;28;20036;-74
2022/09/03 02:47:59;;;;;;;1.02;0.85;;;19.40;47.60;;;;;;5073590;28;20067;-73
2022/09/03 02:50:25;;;;;;;0.60;0.60;;;19.40;47.80;;;;;;5090503;28;20463;-69
2022/09/03 02:52:51;;;;;;;0.50;0.50;;;19.30;47.80;;;;;;5093018;28;20024;-69
2022/09/03 02:55:18;;;;;;;0.60;0.60;;;19.40;47.80;;;;;;5103187;28;20074;-73
2022/09/03 02:57:44;;;;;;;0.63;0.63;;;19.40;47.80;;;;;;5095986;28;20040;-73
2022/09/03 03:00:10;;;;;;;1.27;0.70;;;19.30;47.80;;;;;;5098284;28;20028;-69
2022/09/03 03:02:36;;;;;;;2.65;1.13;;;19.30;47.90;;;;;;5091501;28;20038;-69
2022/09/03 03:05:03;;;;;;;0.82;0.70;;;19.30;48.00;;;;;;5090186;28;20410;-69
2022/09/03 03:07:35;;;;;;;0.40;0.40;;;19.20;48.00;;;;;;5090156;28;20032;-69
2022/09/03 03:10:01;;;;;;;0.52;0.52;;;19.20;48.00;;;;;;5091315;28;20497;-73
2022/09/03 03:12:29;;;;;;;0.28;0.28;;;19.20;48.20;;;;;;5090411;28;20115;-69
2022/09/03 03:14:55;;;;;;;0.47;0.47;;;19.20;48.80;;;;;;5092003;28;20038;-68
2022/09/03 03:17:20;;;;;;;0.75;0.60;;;19.20;48.20;;;;;;5091141;28;20032;-73
2022/09/03 03:19:47;;;;;;;1.75;0.75;;;19.20;48.30;;;;;;5090307;28;20409;-69
2022/09/03 03:22:12;;;;;;;0.57;0.52;;;19.10;48.40;;;;;;5071998;28;20105;-73
2022/09/03 03:24:38;;;;;;;0.63;0.63;;;19.10;48.40;;;;;;5089985;28;20932;-68
2022/09/03 03:27:06;;;;;;;1.27;0.70;;;19.10;48.50;;;;;;5091534;28;20475;-69
2022/09/03 03:29:31;;;;;;;0.50;0.50;;;19.00;48.50;;;;;;5102539;28;20111;-69
2022/09/03 03:31:57;;;;;;;5.25;0.82;;;19.00;48.60;;;;;;5092562;28;20115;-69
2022/09/03 03:34:23;;;;;;;0.70;0.50;;;19.00;48.60;;;;;;5090797;28;20036;-69
2022/09/03 03:36:48;;;;;;;1.33;0.63;;;19.00;48.60;;;;;;5093721;28;20149;-68
2022/09/03 03:39:14;;;;;;;0.50;0.50;;;19.00;48.80;;;;;;5085848;28;20028;-69
2022/09/03 03:41:40;;;;;;;0.47;0.47;;;18.90;48.80;;;;;;5082505;28;20032;-69
2022/09/03 03:44:07;;;;;;;0.88;0.40;;;18.90;48.80;;;;;;5089504;28;20031;-68
2022/09/03 03:46:38;;;;;;;0.30;0.30;;;18.80;48.90;;;;;;5099072;28;20035;-69
2022/09/03 03:49:05;;;;;;;1.27;0.43;;;18.90;48.90;;;;;;5087670;28;20031;-68
2022/09/03 03:51:32;;;;;;;0.80;0.60;;;18.80;49.00;;;;;;5085374;28;20033;-73
2022/09/03 03:53:58;;;;;;;0.50;0.50;;;18.80;49.10;;;;;;5092181;28;20030;-73
2022/09/03 03:56:25;;;;;;;0.73;0.52;;;18.80;49.20;;;;;;5093094;28;20048;-69
2022/09/03 03:58:52;;;;;;;0.52;0.50;;;18.70;49.20;;;;;;5102109;28;20024;-69
2022/09/03 04:01:23;;;;;;;0.50;0.50;;;18.80;49.30;;;;;;5089149;28;20024;-74
2022/09/03 04:03:49;;;;;;;0.65;0.65;;;18.70;49.20;;;;;;5090539;28;20435;-74
2022/09/03 04:06:17;;;;;;;0.52;0.52;;;18.70;49.20;;;;;;5096925;28;20062;-74
2022/09/03 04:08:45;;;;;;;0.82;0.47;;;18.70;49.30;;;;;;5086423;28;20090;-74
2022/09/03 04:11:13;;;;;;;0.70;0.57;;;18.70;49.30;;;;;;5088172;28;20471;-69
2022/09/03 04:13:41;;;;;;;1.02;0.80;;;18.60;49.40;;;;;;5087160;28;20095;-74
2022/09/03 04:16:12;;;;;;;0.47;0.47;;;18.60;49.50;;;;;;5087819;28;20077;-69
2022/09/03 04:18:39;;;;;;;0.30;0.30;;;18.60;49.70;;;;;;5088456;28;20016;-69
2022/09/03 04:21:05;;;;;;;0.52;0.40;;;18.50;49.70;;;;;;5087791;28;20365;-73
2022/09/03 04:23:33;;;;;;;0.77;0.57;;;18.50;49.70;;;;;;5087767;28;20024;-73
2022/09/03 04:25:59;;;;;;;0.57;0.57;;;18.40;49.70;;;;;;5087740;28;20037;-69
2022/09/03 04:28:25;;;;;;;0.50;0.40;;;18.40;49.70;;;;;;5086765;28;20032;-69
2022/09/03 04:30:51;;;;;;;0.93;0.65;;;18.50;49.70;;;;;;5093164;28;20051;-73
2022/09/03 04:33:17;;;;;;;5.80;0.65;;;18.50;49.60;;;;;;5087046;28;20070;-69
2022/09/03 04:35:43;;;;;;;0.45;0.45;;;18.40;49.50;;;;;;5085599;28;20039;-69
2022/09/03 04:38:09;;;;;;;0.50;0.50;;;18.40;49.60;;;;;;5087025;28;20032;-73
2022/09/03 04:40:34;;;;;;;0.65;0.65;;;18.40;49.60;;;;;;5088100;28;20055;-69
2022/09/03 04:43:00;;;;;;;0.75;0.75;;;18.40;49.70;;;;;;5096901;28;20024;-73
2022/09/03 04:45:27;;;;;;;0.60;0.40;;;18.40;49.80;;;;;;5089395;28;20027;-69
2022/09/03 04:48:03;;;;;;;0.47;0.47;;;18.40;49.80;;;;;;5091515;28;20016;-69
2022/09/03 04:50:31;;;;;;;0.63;0.63;;;18.40;49.90;;;;;;5089563;28;20028;-71
2022/09/03 04:53:02;;;;;;;0.47;0.47;;;18.30;49.90;;;;;;5087813;28;20028;-69
2022/09/03 04:55:32;;;;;;;0.32;0.32;;;18.30;49.90;;;;;;5088973;28;20028;-69
2022/09/03 04:57:58;;;;;;;0.45;0.40;;;18.30;49.90;;;;;;5092860;28;20052;-74
2022/09/03 05:00:24;;;;;;;0.40;0.40;;;18.30;50.00;;;;;;5090000;28;20032;-73
2022/09/03 05:02:50;;;;;;;0.75;0.68;;;18.20;50.00;;;;;;5096206;28;20465;-72
2022/09/03 05:05:17;;;;;;;0.85;0.65;;;18.30;50.10;;;;;;5089123;28;20070;-73
2022/09/03 05:07:43;;;;;;;0.43;0.30;;;18.20;50.00;;;;;;5088966;28;20064;-68
2022/09/03 05:10:15;;;;;;;0.52;0.52;;;18.20;50.00;;;;;;5090548;28;20505;-67
2022/09/03 05:12:41;;;;;;;0.52;0.30;;;18.20;50.20;;;;;;5089534;28;20031;-67
2022/09/03 05:15:07;;;;;;;0.60;0.60;;;18.20;50.10;;;;;;5090839;28;20427;-68
2022/09/03 05:17:33;;;;;;;0.30;0.30;;;18.20;50.10;;;;;;5085318;28;20145;-68
2022/09/03 05:19:58;;;;;;;0.40;0.40;;;18.30;50.10;;;;;;5103453;28;20027;-67
2022/09/03 05:22:24;;;;;;;0.50;0.50;;;18.30;50.00;;;;;;5089549;28;20025;-67
2022/09/03 05:24:50;;;;;;;0.40;0.40;;;18.20;50.00;;;;;;5087986;28;20032;-67
2022/09/03 05:27:16;;;;;;;0.40;0.40;;;18.20;50.00;;;;;;5087551;28;20114;-68
2022/09/03 05:29:43;;;;;;;0.50;0.50;;;18.30;50.10;;;;;;5088986;28;20035;-68
2022/09/03 05:32:09;;;;;;;0.60;0.60;;;18.30;50.00;;;;;;5087795;28;20040;-68
2022/09/03 05:34:35;;;;;;;0.32;0.32;;;18.30;50.10;;;;;;5089427;28;20056;-68
2022/09/03 05:37:00;;;;;;;0.85;0.50;;;18.30;50.10;;;;;;5069506;28;20132;-68
2022/09/03 05:39:26;;;;;;;0.38;0.38;;;18.30;50.10;;;;;;5070609;28;20032;-68
2022/09/03 05:41:52;;;;;;;0.38;0.32;;;18.30;50.10;;;;;;5088620;28;20032;-68
2022/09/03 05:44:20;;;;;;;0.40;0.40;;;18.40;50.10;;;;;;5088120;28;20099;-68
2022/09/03 05:46:46;;;;;;;0.57;0.57;;;18.30;50.10;;;;;;5093189;28;20032;-69
2022/09/03 05:49:11;;;;;;;0.50;0.50;;;18.40;50.10;;;;;;5097471;28;20318;-69
2022/09/03 05:51:41;;;;;;;0.85;0.60;;;18.40;50.10;;;;;;5086605;28;20460;-73
2022/09/03 05:54:07;;;;;;;0.45;0.45;;;18.40;50.00;;;;;;5086991;28;20095;-69
2022/09/03 05:56:35;;;;;;;0.68;0.50;;;18.50;49.90;;;;;;5087155;28;20040;-73
2022/09/03 05:59:05;;;;;;;0.70;0.50;;;18.50;49.90;;;;;;5087533;28;20107;-73
2022/09/03 06:01:41;;;;;;;0.70;0.70;;;18.60;49.80;;;;;;5090110;28;20467;-68
2022/09/03 06:04:13;;;;;;;0.47;0.47;;;18.60;49.90;;;;;;5096360;28;20034;-73
2022/09/03 06:06:41;;;;;;;0.40;0.40;;;18.60;49.70;;;;;;5097351;28;20069;-73
2022/09/03 06:09:16;;;;;;;0.70;0.70;;;18.60;49.70;;;;;;5089627;28;20024;-73
2022/09/03 06:11:44;;;;;;;0.43;0.43;;;18.70;49.70;;;;;;5090705;28;20032;-69
2022/09/03 06:14:12;;;;;;;0.40;0.40;;;18.70;49.60;;;;;;5105057;28;20077;-69
2022/09/03 06:16:48;;;;;;;0.45;0.45;;;18.80;49.50;;;;;;5091724;28;20536;-69
2022/09/03 06:19:14;;;;;;;0.45;0.45;;;18.80;49.50;;;;;;5090938;28;20526;-68
2022/09/03 06:21:42;;;;;;;2.42;0.43;;;18.90;49.50;;;;;;5090933;28;20035;-69
2022/09/03 06:24:14;;;;;;;0.50;0.45;;;18.90;49.40;;;;;;5090583;28;20118;-69
2022/09/03 06:26:39;;;;;;;0.97;0.80;;;18.90;49.30;;;;;;5099666;28;20032;-73
2022/09/03 06:29:05;;;;;;;0.32;0.32;;;18.90;49.20;;;;;;5090611;28;20430;-73
2022/09/03 06:31:31;;;;;;;0.77;0.68;;;19.00;49.20;;;;;;5092249;28;20039;-74
2022/09/03 06:33:57;;;;;;;1.63;0.88;;;19.00;49.20;;;;;;5101368;28;20032;-74
2022/09/03 06:36:25;;;;;;;0.30;0.30;;;19.00;49.30;;;;;;5091592;28;20044;-68
2022/09/03 06:38:53;;;;;;;0.50;0.50;;;19.10;49.80;;;;;;5091972;28;20025;-73
2022/09/03 06:41:23;;;;;;;0.70;0.70;;;19.10;49.10;;;;;;5104047;28;20067;-73
2022/09/03 06:44:03;;;;;;;1.25;0.95;;;19.20;49.00;;;;;;5090635;28;20405;-69
2022/09/03 06:46:31;;;;;;;0.50;0.50;;;19.20;48.90;;;;;;5091941;28;20376;-73
2022/09/03 06:48:57;;;;;;;0.43;0.43;;;19.30;48.90;;;;;;5091532;28;20028;-68
2022/09/03 06:51:25;;;;;;;0.40;0.40;;;19.30;48.90;;;;;;5090201;28;20099;-73
2022/09/03 06:53:53;;;;;;;1.15;0.75;;;19.40;48.80;;;;;;5092303;28;20123;-73
2022/09/03 06:56:25;;;;;;;0.47;0.40;;;19.40;48.70;;;;;;5088195;28;20032;-73
2022/09/03 06:58:52;;;;;;;0.43;0.43;;;19.50;48.60;;;;;;5092085;28;20028;-73
2022/09/03 07:01:26;;;;;;;0.98;0.50;;;19.50;48.60;;;;;;5090283;28;20023;-73
2022/09/03 07:03:55;;;;;;;0.50;0.50;;;19.50;48.70;;;;;;5089209;28;20125;-73
2022/09/03 07:06:22;;;;;;;0.38;0.38;;;19.60;48.70;;;;;;5085206;28;20111;-68
2022/09/03 07:08:48;;;;;;;4.35;0.80;;;19.60;48.80;;;;;;5083652;28;20536;-68
2022/09/03 07:11:18;;;;;;;0.70;0.65;;;19.70;48.70;;;;;;5084118;28;20024;-72
2022/09/03 07:13:46;;;;;;;0.85;0.50;;;19.70;48.70;;;;;;5088159;28;20494;-73
2022/09/03 07:16:14;;;;;;;0.90;0.63;;;19.70;48.70;;;;;;5087031;28;20031;-71
2022/09/03 07:18:42;;;;;;;0.55;0.55;;;19.80;48.80;;;;;;5089545;28;20022;-73
2022/09/03 07:21:10;;;;;;;0.40;0.40;;;19.80;48.60;;;;;;5088808;28;20115;-73
2022/09/03 07:23:37;;;;;;;0.88;0.40;;;19.90;48.70;;;;;;5085661;28;20024;-73
2022/09/03 07:26:09;;;;;;;1.27;0.50;;;20.00;48.50;;;;;;5087182;28;20498;-73
2022/09/03 07:28:36;;;;;;;0.70;0.40;;;20.10;48.50;;;;;;5088697;28;20494;-73
2022/09/03 07:31:11;;;;;;;0.28;0.28;;;20.20;48.40;;;;;;5088590;28;20031;-68
2022/09/03 07:33:38;;;;;;;0.50;0.50;;;20.30;48.20;;;;;;5087245;28;20067;-68
2022/09/03 07:36:13;;;;;;;0.95;0.43;;;20.40;48.10;;;;;;5088894;28;20499;-68
2022/09/03 07:38:40;;;;;;;0.50;0.50;;;20.40;48.00;;;;;;5093012;28;20074;-68
2022/09/03 07:41:07;;;;;;;0.40;0.40;;;20.50;48.10;;;;;;5090138;28;20016;-73
2022/09/03 07:43:39;;;;;;;1.08;0.40;;;20.60;48.00;;;;;;5093735;28;20047;-73
2022/09/03 07:46:06;;;;;;;0.30;0.30;;;20.60;47.90;;;;;;5090773;28;20023;-73
2022/09/03 07:48:32;;;;;;;0.40;0.40;;;20.70;47.80;;;;;;5087805;28;20422;-73
2022/09/03 07:51:01;;;;;;;1.05;0.50;;;20.80;47.70;;;;;;5086318;28;20032;-68
2022/09/03 07:53:28;;;;;;;0.43;0.43;;;20.90;47.80;;;;;;5082673;28;20419;-73
2022/09/03 07:56:03;;;;;;;0.40;0.40;;;20.90;47.70;;;;;;5083503;28;20036;-73
2022/09/03 07:58:31;;;;;;;0.47;0.47;;;21.00;47.60;;;;;;5088530;28;20050;-73
2022/09/03 08:00:57;;;;;;;0.38;0.38;;;21.20;47.50;;;;;;5083507;28;20107;-69
2022/09/03 08:03:23;;;;;;;0.60;0.50;;;21.30;47.30;;;;;;5091861;28;20082;-69
2022/09/03 08:05:49;;;;;;;0.55;0.55;;;21.40;47.10;;;;;;5073224;28;20426;-69
2022/09/03 08:08:16;;;;;;;1.15;0.70;;;21.50;46.90;;;;;;5086997;28;20028;-69
2022/09/03 08:10:42;;;;;;;0.38;0.38;;;21.50;46.70;;;;;;5087536;28;20024;-68
2022/09/03 08:13:09;;;;;;;0.95;0.50;;;21.60;46.70;;;;;;5095251;28;20103;-73
2022/09/03 08:15:36;;;;;;;0.30;0.30;;;21.70;46.70;;;;;;5082282;28;20360;-74
2022/09/03 08:18:03;;;;;;;0.70;0.70;;;21.80;46.40;;;;;;5070523;28;20035;-74
2022/09/03 08:20:28;;;;;;;0.40;0.40;;;21.90;46.20;;;;;;5087087;28;20475;-69
2022/09/03 08:23:01;;;;;;;0.32;0.32;;;22.00;46.10;;;;;;5087257;28;20043;-74
2022/09/03 08:25:28;;;;;;;0.90;0.50;;;22.10;46.00;;;;;;5084718;28;20056;-74
2022/09/03 08:27:53;;;;;;;0.50;0.50;;;22.20;45.80;;;;;;5085954;28;20417;-74
2022/09/03 08:30:20;;;;;;;2.25;1.42;;;22.30;45.70;;;;;;5085857;28;20032;-75
2022/09/03 08:32:46;;;;;;;1.30;0.40;;;22.40;45.60;;;;;;5088628;28;20035;-73
2022/09/03 08:35:12;;;;;;;0.38;0.20;;;22.50;45.40;;;;;;5084438;28;20043;-73
2022/09/03 08:37:38;;;;;;;0.90;0.40;;;22.50;45.30;;;;;;5090190;28;20036;-74
2022/09/03 08:40:05;;;;;;;0.45;0.45;;;22.60;45.30;;;;;;5088307;28;20410;-72
2022/09/03 08:43:09;;;;;;;0.30;0.30;;;22.70;45.10;;;;;;5088342;28;20494;-72
2022/09/03 08:45:36;;;;;;;0.95;0.73;;;22.80;44.90;;;;;;5024967;28;20068;-74
2022/09/03 08:48:20;;;;;;;0.50;0.50;;;23.00;44.80;;;;;;5023725;28;20120;-72
2022/09/03 08:50:51;;;;;;;1.65;0.40;;;23.00;44.70;;;;;;5062374;28;20043;-74
2022/09/03 08:53:40;;;;;;;0.30;0.30;;;23.10;44.60;;;;;;5086716;28;20028;-72
2022/09/03 08:56:19;;;;;;;1.33;0.63;;;23.30;44.20;;;;;;5084890;28;20119;-72
2022/09/03 08:58:45;;;;;;;0.75;0.40;;;23.40;44.10;;;;;;5086235;28;20028;-72
2022/09/03 09:01:21;;;;;;;0.82;0.45;;;23.40;43.90;;;;;;5089142;28;20051;-72
2022/09/03 09:04:17;;;;;;;0.55;0.50;;;23.60;43.80;;;;;;5089413;28;20074;-73
2022/09/03 09:07:10;;;;;;;0.50;0.50;;;23.70;43.30;;;;;;5088896;28;20157;-72
2022/09/03 09:09:59;;;;;;;0.40;0.40;;;23.80;43.00;;;;;;5090000;28;20394;-72
2022/09/03 09:12:40;;;;;;;0.75;0.75;;;23.90;42.90;;;;;;5088049;28;20028;-73
2022/09/03 09:15:29;;;;;;;0.52;0.52;;;24.00;42.80;;;;;;5089303;28;20027;-72
2022/09/03 09:18:22;;;;;;;0.60;0.60;;;24.20;42.30;;;;;;5094280;28;20023;-72
2022/09/03 09:20:49;;;;;;;0.82;0.63;;;24.20;42.30;;;;;;5089155;28;20020;-73
2022/09/03 09:23:38;;;;;;;0.45;0.40;;;24.30;42.20;;;;;;5088951;28;20387;-73
2022/09/03 09:26:10;;;;;;;0.30;0.30;;;24.50;42.10;;;;;;5091129;28;20050;-73
2022/09/03 09:28:37;;;;;;;1.00;0.50;;;24.60;42.10;;;;;;5094781;28;20024;-75
2022/09/03 09:31:11;;;;;;;0.50;0.50;;;24.80;41.80;;;;;;5106012;28;20114;-75
2022/09/03 09:33:37;;;;;;;0.40;0.40;;;25.00;41.60;;;;;;5086755;28;20058;-75
2022/09/03 09:36:07;;;;;;;0.93;0.40;;;25.10;41.40;;;;;;5087548;28;20039;-75
2022/09/03 09:38:35;;;;;;;0.70;0.50;;;25.30;41.30;;;;;;5087621;28;20016;-75
2022/09/03 09:41:28;;;;;;;0.63;0.63;;;25.40;40.80;;;;;;5092683;28;20085;-75
2022/09/03 09:44:01;;;;;;;0.57;0.57;;;25.60;40.80;;;;;;5089116;28;20074;-75
2022/09/03 09:46:35;;;;;;;0.55;0.50;;;25.60;40.60;;;;;;5090980;28;20054;-75
2022/09/03 09:49:01;;;;;;;3.80;0.52;;;25.80;40.60;;;;;;5092830;28;20429;-74
2022/09/03 09:51:30;;;;;;;2.45;1.27;;;25.90;40.30;;;;;;5091207;28;20115;-75
2022/09/03 09:54:26;;;;;;;0.40;0.40;;;26.00;40.20;;;;;;5090910;28;20032;-75
2022/09/03 09:57:02;;;;;;;0.40;0.40;;;26.20;39.90;;;;;;5100165;28;20043;-75
2022/09/03 09:59:28;;;;;;;0.50;0.50;;;26.40;39.80;;;;;;5092741;28;20028;-75
2022/09/03 10:02:13;;;;;;;0.40;0.40;;;26.40;39.40;;;;;;5092709;28;20024;-75
2022/09/03 10:04:42;;;;;;;0.38;0.32;;;26.60;39.50;;;;;;5090719;28;20024;-75
2022/09/03 10:07:26;;;;;;;0.77;0.50;;;26.70;39.30;;;;;;5094544;28;20032;-75
2022/09/03 10:10:14;;;;;;;0.73;0.73;;;26.80;38.90;;;;;;5097538;28;20024;-75
2022/09/03 10:12:50;;;;;;;0.43;0.43;;;26.90;38.50;;;;;;5091122;28;20036;-71
2022/09/03 10:15:28;;;;;;;0.60;0.50;;;27.00;38.50;;;;;;5099762;28;20125;-71
2022/09/03 10:18:05;;;;;;;0.47;0.47;;;27.00;38.50;;;;;;5092467;28;20028;-71
2022/09/03 10:20:54;;;;;;;0.82;0.63;;;27.20;38.60;;;;;;5101025;28;20024;-75
2022/09/03 10:23:27;;;;;;;0.50;0.40;;;27.40;38.30;;;;;;5092663;28;20364;-71
2022/09/03 10:26:06;;;;;;;2.35;0.40;;;27.40;37.90;;;;;;5094776;28;20056;-71
2022/09/03 10:28:40;;;;;;;0.32;0.32;;;27.50;37.60;;;;;;5092190;28;20375;-75
2022/09/03 10:31:43;;;;;;;0.60;0.60;;;27.60;37.60;;;;;;5090598;28;20093;-75
2022/09/03 10:34:35;;;;;;;0.30;0.30;;;27.80;37.70;;;;;;5091785;28;20589;-75
2022/09/03 10:37:41;;;;;;;0.50;0.50;;;27.90;37.30;;;;;;5089477;28;20020;-76
2022/09/03 10:40:17;;;;;;;0.57;0.57;;;28.10;37.00;;;;;;5095528;28;20382;-71
2022/09/03 10:42:49;;;;;;;0.60;0.60;;;28.20;37.00;;;;;;5098893;28;20383;-71
2022/09/03 10:45:44;;;;;;;0.50;0.50;;;28.40;36.80;;;;;;5090655;28;20017;-71
2022/09/03 10:48:12;;;;;;;0.60;0.60;;;28.60;36.60;;;;;;5081572;28;20048;-71
2022/09/03 10:51:15;;;;;;;0.60;0.60;;;28.70;36.50;;;;;;5091140;28;20115;-70
2022/09/03 10:54:19;;;;;;;0.70;0.70;;;28.90;36.30;;;;;;5090079;28;20054;-70
2022/09/03 10:57:23;;;;;;;0.50;0.50;;;29.10;36.20;;;;;;5088325;28;20060;-71
2022/09/03 11:00:12;;;;;;;0.50;0.50;;;29.20;35.90;;;;;;5094963;28;20112;-71
2022/09/03 11:02:49;;;;;;;1.27;0.50;;;29.30;35.90;;;;;;5094193;28;20031;-75
2022/09/03 11:05:23;;;;;;;0.82;0.75;;;29.40;35.50;;;;;;5092153;28;20051;-75
2022/09/03 11:07:57;;;;;;;0.50;0.50;;;29.50;35.30;;;;;;5090913;28;20467;-75
2022/09/03 11:10:34;;;;;;;0.70;0.70;;;29.60;34.80;;;;;;5090767;28;20039;-71
2022/09/03 11:13:12;;;;;;;0.65;0.40;;;29.70;35.10;;;;;;5091637;28;20085;-71
2022/09/03 11:15:52;;;;;;;0.60;0.60;;;29.80;34.90;;;;;;5089886;28;20479;-71
2022/09/03 11:18:26;;;;;;;0.63;0.63;;;30.00;34.50;;;;;;5091505;28;20114;-71
2022/09/03 11:20:55;;;;;;;0.80;0.80;;;30.10;34.40;;;;;;5089530;28;20118;-70
2022/09/03 11:23:24;;;;;;;0.60;0.60;;;30.20;34.10;;;;;;5098150;28;20673;-71
2022/09/03 11:25:56;;;;;;;0.60;0.60;;;30.30;34.00;;;;;;5090155;28;20036;-71
2022/09/03 11:28:34;;;;;;;0.60;0.60;;;30.30;34.20;;;;;;5092678;28;20058;-71
2022/09/03 11:31:24;;;;;;;0.50;0.50;;;30.50;34.10;;;;;;5090290;28;20077;-70
2022/09/03 11:34:12;;;;;;;0.85;0.85;;;30.60;33.90;;;;;;5088385;28;20169;-70
2022/09/03 11:36:39;;;;;;;0.60;0.60;;;30.70;33.90;;;;;;5088800;28;20028;-71
2022/09/03 11:39:38;;;;;;;0.70;0.70;;;30.90;34.00;;;;;;5091584;28;20469;-71
2022/09/03 11:42:09;;;;;;;0.70;0.70;;;31.10;34.40;;;;;;5087011;28;20028;-70
2022/09/03 11:44:36;;;;;;;1.30;0.63;;;31.30;33.60;;;;;;5093647;28;20490;-71
2022/09/03 11:47:15;;;;;;;0.60;0.60;;;31.40;33.50;;;;;;5090512;28;20024;-71
2022/09/03 11:49:46;;;;;;;1.48;0.90;;;31.50;33.40;;;;;;5093614;28;20550;-71
2022/09/03 11:52:12;;;;;;;0.70;0.70;;;31.50;33.10;;;;;;5090215;28;20024;-70
2022/09/03 11:54:45;;;;;;;0.50;0.50;;;31.50;33.20;;;;;;5101306;28;20462;-75
2022/09/03 11:57:20;;;;;;;0.70;0.70;;;31.50;33.10;;;;;;5089583;28;20082;-75
2022/09/03 11:59:46;;;;;;;0.70;0.70;;;31.60;32.80;;;;;;5090483;28;20024;-75
2022/09/03 12:02:29;;;;;;;0.50;0.50;;;31.70;32.70;;;;;;5088505;28;20510;-76
2022/09/03 12:05:36;;;;;;;0.70;0.70;;;31.70;32.90;;;;;;5090289;28;20426;-76
2022/09/03 12:08:13;;;;;;;0.70;0.70;;;31.90;32.80;;;;;;5025862;28;20175;-74
2022/09/03 12:10:51;;;;;;;0.63;0.63;;;31.90;32.60;;;;;;5027136;28;20037;-74
2022/09/03 12:13:42;;;;;;;0.90;0.90;;;31.80;32.30;;;;;;5076513;28;20038;-75
2022/09/03 12:16:19;;;;;;;0.50;0.50;;;31.60;32.10;;;;;;5089362;28;20111;-75
2022/09/03 12:18:49;;;;;;;1.23;0.90;;;31.50;32.40;;;;;;5088633;28;20052;-75
2022/09/03 12:21:16;;;;;;;0.80;0.80;;;31.70;32.10;;;;;;5089086;28;20497;-70
2022/09/03 12:23:49;;;;;;;0.63;0.60;;;31.60;31.80;;;;;;5089595;28;20052;-70
2022/09/03 12:26:22;;;;;;;2.42;0.70;;;31.70;32.30;;;;;;5089849;28;20027;-71
2022/09/03 12:28:57;;;;;;;0.55;0.55;;;31.70;32.00;;;;;;5089729;28;20023;-70
2022/09/03 12:31:28;;;;;;;0.80;0.77;;;31.70;32.20;;;;;;5090153;28;20028;-70
2022/09/03 12:33:57;;;;;;;0.90;0.90;;;31.80;32.10;;;;;;5089326;28;20078;-71
2022/09/03 12:36:25;;;;;;;0.57;0.57;;;32.00;32.20;;;;;;5104090;28;20032;-71
2022/09/03 12:38:51;;;;;;;0.70;0.70;;;32.20;32.20;;;;;;5091472;28;20182;-73
2022/09/03 12:41:26;;;;;;;0.65;0.65;;;32.40;31.70;;;;;;5089184;28;20383;-69
2022/09/03 12:43:58;;;;;;;0.65;0.65;;;32.40;31.80;;;;;;5097775;28;20485;-70
2022/09/03 12:46:29;;;;;;;0.75;0.75;;;32.40;31.60;;;;;;5101717;28;20473;-71
2022/09/03 12:49:04;;;;;;;0.85;0.85;;;32.50;31.70;;;;;;5088476;28;20028;-70
2022/09/03 12:51:41;;;;;;;1.23;1.13;;;32.70;31.20;;;;;;5089913;28;20020;-70
2022/09/03 12:54:15;;;;;;;0.93;0.93;;;32.70;31.20;;;;;;5089232;28;20020;-71
2022/09/03 12:56:55;;;;;;;0.63;0.63;;;32.70;31.30;;;;;;5097008;28;20070;-70
2022/09/03 12:59:22;;;;;;;0.80;0.80;;;32.80;31.30;;;;;;5094749;28;20386;-70
2022/09/03 13:01:53;;;;;;;1.98;0.70;;;33.00;31.30;;;;;;5089857;28;20066;-75
2022/09/03 13:04:28;;;;;;;0.85;0.77;;;33.10;31.40;;;;;;5089625;28;20025;-71
2022/09/03 13:07:04;;;;;;;1.10;1.00;;;33.20;31.30;;;;;;5088948;28;20047;-71
2022/09/03 13:09:33;;;;;;;0.80;0.80;;;33.30;31.30;;;;;;5088327;28;20070;-70
2022/09/03 13:12:00;;;;;;;1.25;1.15;;;33.40;31.20;;;;;;5087683;28;20123;-70
2022/09/03 13:14:26;;;;;;;0.80;0.80;;;33.50;31.10;;;;;;5093553;28;20032;-70
2022/09/03 13:17:17;;;;;;;0.93;0.93;;;33.50;31.10;;;;;;5092155;28;20028;-70
2022/09/03 13:20:15;;;;;;;0.70;0.70;;;33.50;31.20;;;;;;5092033;28;20077;-70
2022/09/03 13:23:14;;;;;;;0.75;0.75;;;33.50;31.20;;;;;;5090939;28;20046;-69